Time;durP1;ratioP1;P1;durP2;ratioP2;P2;SDS_P1;SDS_P2;PMS_P1;PMS_P2;Temp;Humidity;BMP_temperature;BMP_pressure;BME280_temperature;BME280_humidity;BME280_pressure;Samples;Min_cycle;Max_cycle;Signal;HPM_P1;HPM_P2
2022/04/27 00:00:36;;;;;;;31.00;16.70;;;11.30;99.90;;;;;;5091622;28;20238;-57
2022/04/27 00:03:03;;;;;;;27.40;15.80;;;11.30;99.90;;;;;;5092579;28;20196;-58
2022/04/27 00:05:30;;;;;;;26.07;16.30;;;11.30;99.90;;;;;;5092737;28;20694;-58
2022/04/27 00:07:56;;;;;;;30.23;17.17;;;11.30;99.90;;;;;;5092672;28;20234;-56
2022/04/27 00:10:22;;;;;;;27.60;16.07;;;11.20;99.90;;;;;;5092724;28;20184;-56
2022/04/27 00:12:48;;;;;;;30.73;16.73;;;11.20;99.90;;;;;;5092701;28;20321;-57
2022/04/27 00:15:15;;;;;;;34.80;17.53;;;11.20;99.90;;;;;;5092420;28;20206;-55
2022/04/27 00:17:41;;;;;;;29.80;17.53;;;11.20;99.90;;;;;;5092301;28;20187;-57
2022/04/27 00:20:08;;;;;;;33.17;17.87;;;11.20;99.90;;;;;;5091992;28;20184;-55
2022/04/27 00:22:35;;;;;;;34.73;18.90;;;11.20;99.90;;;;;;5092497;28;20223;-58
2022/04/27 00:25:03;;;;;;;34.50;18.93;;;11.20;99.90;;;;;;5092352;28;20171;-56
2022/04/27 00:27:29;;;;;;;32.23;18.97;;;11.20;99.90;;;;;;5092440;28;20278;-58
2022/04/27 00:29:56;;;;;;;30.40;17.80;;;11.10;99.90;;;;;;5079844;28;20184;-56
2022/04/27 00:32:22;;;;;;;30.67;17.90;;;11.10;99.90;;;;;;5072015;28;20223;-55
2022/04/27 00:34:48;;;;;;;33.03;19.00;;;11.10;99.90;;;;;;5072251;28;20187;-58
2022/04/27 00:37:14;;;;;;;29.77;17.67;;;11.00;99.90;;;;;;5071847;28;20215;-56
2022/04/27 00:39:40;;;;;;;33.03;18.73;;;11.00;99.90;;;;;;5070400;28;20188;-57
2022/04/27 00:42:21;;;;;;;32.20;18.23;;;11.00;99.90;;;;;;5071631;28;20191;-58
2022/04/27 00:44:47;;;;;;;31.53;18.17;;;11.00;99.90;;;;;;5071790;28;20206;-56
2022/04/27 00:47:14;;;;;;;35.83;18.33;;;10.90;99.90;;;;;;5071598;28;20181;-59
2022/04/27 00:49:51;;;;;;;32.10;18.37;;;11.00;99.90;;;;;;5071602;28;20272;-57
2022/04/27 00:52:19;;;;;;;32.80;17.97;;;11.00;99.90;;;;;;5071684;28;20219;-56
2022/04/27 00:54:48;;;;;;;34.63;17.90;;;11.00;99.90;;;;;;5071872;28;20488;-58
2022/04/27 00:57:14;;;;;;;35.07;18.57;;;11.00;99.90;;;;;;5072003;28;20229;-56
2022/04/27 00:59:40;;;;;;;35.50;18.63;;;11.00;99.90;;;;;;5071943;28;20212;-58
2022/04/27 01:02:07;;;;;;;29.27;17.60;;;11.00;99.90;;;;;;5071533;28;20242;-54
2022/04/27 01:04:34;;;;;;;28.90;17.60;;;11.00;99.90;;;;;;5071728;28;20260;-56
2022/04/27 01:07:00;;;;;;;29.03;15.37;;;11.00;99.90;;;;;;5071616;28;20178;-58
2022/04/27 01:09:27;;;;;;;26.80;15.33;;;11.00;99.90;;;;;;5071508;28;20219;-57
2022/04/27 01:11:53;;;;;;;35.30;16.37;;;11.00;99.90;;;;;;5071186;28;20228;-56
2022/04/27 01:14:18;;;;;;;27.43;15.37;;;11.00;99.90;;;;;;5071516;28;20190;-57
2022/04/27 01:16:54;;;;;;;31.63;16.73;;;10.90;99.90;;;;;;5071484;28;20187;-57
2022/04/27 01:19:22;;;;;;;27.97;15.30;;;10.90;99.90;;;;;;5071294;28;20188;-57
2022/04/27 01:21:49;;;;;;;30.93;15.20;;;11.00;99.90;;;;;;5071332;28;20309;-54
2022/04/27 01:24:19;;;;;;;24.30;13.80;;;11.00;99.90;;;;;;5071444;28;20181;-55
2022/04/27 01:26:46;;;;;;;24.33;13.67;;;11.00;99.90;;;;;;5071191;28;20190;-58
2022/04/27 01:29:14;;;;;;;27.30;15.57;;;11.00;99.90;;;;;;5077791;28;20181;-58
2022/04/27 01:31:40;;;;;;;24.37;14.47;;;10.90;99.90;;;;;;5091745;28;20621;-56
2022/04/27 01:34:06;;;;;;;26.57;15.10;;;10.90;99.90;;;;;;5090177;28;20194;-57
2022/04/27 01:36:31;;;;;;;29.47;15.90;;;10.90;99.90;;;;;;5091690;28;20179;-54
2022/04/27 01:38:57;;;;;;;25.07;14.10;;;10.90;99.90;;;;;;5091375;28;20638;-55
2022/04/27 01:41:23;;;;;;;41.77;17.80;;;10.90;99.90;;;;;;5091504;28;20228;-55
2022/04/27 01:43:48;;;;;;;33.33;16.50;;;10.90;99.90;;;;;;5091245;28;20182;-57
2022/04/27 01:46:14;;;;;;;28.53;15.77;;;10.90;99.90;;;;;;5091465;28;20669;-56
2022/04/27 01:48:40;;;;;;;24.53;14.20;;;10.90;99.90;;;;;;5091282;28;20636;-57
2022/04/27 01:51:06;;;;;;;26.77;14.93;;;10.90;99.90;;;;;;5090959;28;20181;-56
2022/04/27 01:56:16;;;;;;;24.77;13.33;;;10.90;99.90;;;;;;5091277;28;20194;-58
2022/04/27 01:58:42;;;;;;;29.00;16.63;;;10.90;99.90;;;;;;5090094;28;20183;-56
2022/04/27 02:01:11;;;;;;;26.33;13.90;;;10.90;99.90;;;;;;5091106;28;20174;-57
2022/04/27 02:03:38;;;;;;;23.70;13.43;;;10.80;99.90;;;;;;5091158;28;20622;-57
2022/04/27 02:06:03;;;;;;;27.67;14.63;;;10.80;99.90;;;;;;5090779;28;20261;-58
2022/04/27 02:08:29;;;;;;;23.77;14.07;;;10.70;99.90;;;;;;5089697;28;20233;-56
2022/04/27 02:10:55;;;;;;;30.13;16.03;;;10.70;99.90;;;;;;5091637;28;20188;-56
2022/04/27 02:13:21;;;;;;;22.93;13.57;;;10.80;99.90;;;;;;5090655;28;20234;-55
2022/04/27 02:15:47;;;;;;;23.17;13.50;;;10.80;99.90;;;;;;5089723;28;20258;-55
2022/04/27 02:18:12;;;;;;;33.33;14.50;;;10.80;99.90;;;;;;5090624;28;20197;-58
2022/04/27 02:20:38;;;;;;;24.50;14.27;;;10.80;99.90;;;;;;5090728;28;20656;-56
2022/04/27 02:23:04;;;;;;;30.07;14.53;;;10.80;99.90;;;;;;5090676;28;20261;-56
2022/04/27 02:25:29;;;;;;;24.17;14.13;;;10.90;99.90;;;;;;5091233;28;20187;-56
2022/04/27 02:27:55;;;;;;;24.83;13.73;;;10.90;99.90;;;;;;5090868;28;20183;-55
2022/04/27 02:30:21;;;;;;;26.07;14.57;;;11.00;99.90;;;;;;5075181;28;20194;-56
2022/04/27 02:32:47;;;;;;;22.03;13.33;;;11.00;99.90;;;;;;5074384;28;20216;-54
2022/04/27 02:35:14;;;;;;;37.07;15.10;;;11.00;99.90;;;;;;5074029;28;20243;-57
2022/04/27 02:37:40;;;;;;;25.53;14.60;;;10.90;99.90;;;;;;5073985;28;20273;-57
2022/04/27 02:40:10;;;;;;;25.43;13.17;;;10.90;99.90;;;;;;5073853;28;20236;-56
2022/04/27 02:42:36;;;;;;;25.90;15.07;;;10.80;99.90;;;;;;5074378;28;20183;-57
2022/04/27 02:45:02;;;;;;;24.63;14.43;;;10.80;99.90;;;;;;5073728;28;20179;-56
2022/04/27 02:47:28;;;;;;;24.83;14.83;;;10.70;99.90;;;;;;5074519;28;20174;-57
2022/04/27 02:52:38;;;;;;;25.43;15.03;;;10.60;99.90;;;;;;5074032;28;20221;-58
2022/04/27 02:55:04;;;;;;;29.77;15.77;;;10.70;99.90;;;;;;5074178;28;20274;-56
2022/04/27 02:57:29;;;;;;;24.57;14.70;;;10.70;99.90;;;;;;5073909;28;20186;-58
2022/04/27 02:59:55;;;;;;;31.17;14.60;;;10.70;99.90;;;;;;5074048;28;20669;-56
2022/04/27 03:02:21;;;;;;;32.20;15.10;;;10.70;99.90;;;;;;5073392;28;20192;-57
2022/04/27 03:04:47;;;;;;;26.57;15.90;;;10.80;99.90;;;;;;5072590;28;20526;-57
2022/04/27 03:07:12;;;;;;;31.13;15.37;;;10.70;99.90;;;;;;5073706;28;20634;-54
2022/04/27 03:09:38;;;;;;;34.07;17.17;;;10.60;99.90;;;;;;5074154;28;20177;-55
2022/04/27 03:12:04;;;;;;;29.90;18.43;;;10.60;99.90;;;;;;5073648;28;20220;-55
2022/04/27 03:14:30;;;;;;;32.00;18.03;;;10.50;99.90;;;;;;5073567;28;20656;-55
2022/04/27 03:16:56;;;;;;;27.63;15.83;;;10.50;99.90;;;;;;5072318;28;20263;-56
2022/04/27 03:19:22;;;;;;;28.70;16.20;;;10.50;99.90;;;;;;5073037;28;20256;-57
2022/04/27 03:21:48;;;;;;;25.60;15.17;;;10.40;99.90;;;;;;5073228;28;20235;-56
2022/04/27 03:24:14;;;;;;;29.07;16.23;;;10.40;99.90;;;;;;5072958;28;20182;-55
2022/04/27 03:26:40;;;;;;;26.47;13.93;;;10.40;99.90;;;;;;5073202;28;20547;-56
2022/04/27 03:29:06;;;;;;;33.13;15.27;;;10.40;99.90;;;;;;5078739;28;20260;-57
2022/04/27 03:31:35;;;;;;;24.93;14.47;;;10.40;99.90;;;;;;5093360;28;20254;-54
2022/04/27 03:34:01;;;;;;;24.87;14.90;;;10.40;99.90;;;;;;5093027;28;20554;-57
2022/04/27 03:36:27;;;;;;;32.13;14.50;;;10.40;99.90;;;;;;5093216;28;20587;-57
2022/04/27 03:38:53;;;;;;;29.03;14.90;;;10.40;99.90;;;;;;5093236;28;20173;-56
2022/04/27 03:41:20;;;;;;;27.57;13.27;;;10.40;99.90;;;;;;5092477;28;20176;-59
2022/04/27 03:43:50;;;;;;;24.67;13.90;;;10.40;99.90;;;;;;5093135;28;20193;-57
2022/04/27 03:46:16;;;;;;;29.40;15.13;;;10.30;99.90;;;;;;5092752;28;20206;-58
2022/04/27 03:48:42;;;;;;;31.90;17.30;;;10.30;99.90;;;;;;5092787;28;20738;-58
2022/04/27 03:51:09;;;;;;;28.63;15.83;;;10.30;99.90;;;;;;5092655;28;20284;-56
2022/04/27 03:53:35;;;;;;;29.43;14.50;;;10.40;99.90;;;;;;5091620;28;20189;-54
2022/04/27 03:56:01;;;;;;;28.47;14.77;;;10.40;99.90;;;;;;5093113;28;20255;-55
2022/04/27 03:58:26;;;;;;;30.83;14.27;;;10.50;99.90;;;;;;5092449;28;20622;-57
2022/04/27 04:00:52;;;;;;;32.43;16.67;;;10.50;99.90;;;;;;5092657;28;20177;-57
2022/04/27 04:03:18;;;;;;;25.03;14.20;;;10.60;99.90;;;;;;5090899;28;20200;-54
2022/04/27 04:05:44;;;;;;;37.00;15.57;;;10.60;99.90;;;;;;5092451;28;20526;-56
2022/04/27 04:08:10;;;;;;;34.13;13.73;;;10.70;99.90;;;;;;5092288;28;20178;-56
2022/04/27 04:10:36;;;;;;;26.00;14.00;;;10.70;99.90;;;;;;5092575;28;20199;-56
2022/04/27 04:13:02;;;;;;;34.47;14.60;;;10.70;99.90;;;;;;5092353;28;20216;-58
2022/04/27 04:15:28;;;;;;;34.03;14.83;;;10.80;99.90;;;;;;5091693;28;20325;-57
2022/04/27 04:17:54;;;;;;;27.13;13.57;;;10.80;99.90;;;;;;5091851;28;20277;-57
2022/04/27 04:20:20;;;;;;;30.33;15.20;;;10.90;99.90;;;;;;5091347;28;20309;-56
2022/04/27 04:22:48;;;;;;;29.30;14.80;;;10.90;99.90;;;;;;5090664;28;20187;-57
2022/04/27 04:30:45;;;;;;;31.53;14.40;;;11.20;99.90;;;;;;5072893;28;20205;-55
2022/04/27 04:33:11;;;;;;;35.07;15.63;;;11.30;99.90;;;;;;5071028;28;20212;-57
2022/04/27 04:35:37;;;;;;;30.00;14.93;;;11.40;99.90;;;;;;5071764;28;20268;-57
2022/04/27 04:38:06;;;;;;;34.17;16.03;;;11.50;99.90;;;;;;5070101;28;20277;-58
2022/04/27 04:40:32;;;;;;;34.33;15.30;;;11.60;99.90;;;;;;5071329;28;20206;-57
2022/04/27 04:42:58;;;;;;;28.77;15.30;;;11.60;99.90;;;;;;5070905;28;20203;-57
2022/04/27 04:45:24;;;;;;;33.27;15.93;;;11.60;99.90;;;;;;5071406;28;20194;-56
2022/04/27 04:47:50;;;;;;;36.57;15.40;;;11.60;99.90;;;;;;5071789;28;20181;-55
2022/04/27 04:50:16;;;;;;;24.33;14.70;;;11.60;99.90;;;;;;5071008;28;20725;-58
2022/04/27 04:52:42;;;;;;;25.67;14.47;;;11.60;99.90;;;;;;5071195;28;20300;-56
2022/04/27 04:55:09;;;;;;;39.90;14.53;;;11.60;99.90;;;;;;5070892;28;20629;-56
2022/04/27 04:57:34;;;;;;;33.60;16.37;;;11.60;99.90;;;;;;5071685;28;20634;-57
2022/04/27 05:00:01;;;;;;;53.83;17.03;;;11.60;99.90;;;;;;5071433;28;20181;-59
2022/04/27 05:02:30;;;;;;;35.70;16.07;;;11.70;99.90;;;;;;5070660;28;20181;-56
2022/04/27 05:04:56;;;;;;;36.37;15.97;;;11.80;99.90;;;;;;5071601;28;20174;-56
2022/04/27 05:07:21;;;;;;;30.37;15.50;;;11.90;99.90;;;;;;5070768;28;20177;-61
2022/04/27 05:09:47;;;;;;;30.13;15.47;;;12.00;99.90;;;;;;5071073;28;20205;-59
2022/04/27 05:12:13;;;;;;;28.88;17.10;;;12.10;99.90;;;;;;5069067;28;20428;-58
2022/04/27 05:14:39;;;;;;;36.37;15.83;;;12.20;99.90;;;;;;5069967;28;20190;-55
2022/04/27 05:17:04;;;;;;;29.40;15.60;;;12.20;99.90;;;;;;5071064;28;20169;-56
2022/04/27 05:19:30;;;;;;;35.90;16.50;;;12.20;99.90;;;;;;5070871;28;20639;-54
2022/04/27 05:21:56;;;;;;;24.23;13.63;;;12.30;99.90;;;;;;5071247;28;20233;-55
2022/04/27 05:24:23;;;;;;;28.73;15.67;;;12.40;99.90;;;;;;5052177;28;20194;-54
2022/04/27 05:26:49;;;;;;;32.27;16.40;;;12.50;99.90;;;;;;5070803;28;20655;-56
2022/04/27 05:31:59;;;;;;;28.37;14.27;;;12.80;99.90;;;;;;5090889;28;20231;-56
2022/04/27 05:34:26;;;;;;;31.23;15.27;;;12.90;99.90;;;;;;5088982;28;20605;-59
2022/04/27 05:36:53;;;;;;;38.07;22.80;;;12.80;99.90;;;;;;5090770;28;20190;-54
2022/04/27 05:39:21;;;;;;;24.20;14.17;;;12.90;99.90;;;;;;5090794;28;20172;-56
2022/04/27 05:41:49;;;;;;;27.23;14.50;;;13.00;99.90;;;;;;5091015;28;20184;-54
2022/04/27 05:44:23;;;;;;;30.40;14.03;;;13.10;99.90;;;;;;5090146;28;20294;-55
2022/04/27 05:46:50;;;;;;;32.30;15.17;;;13.10;99.90;;;;;;5090430;28;20173;-57
2022/04/27 05:49:16;;;;;;;24.33;12.47;;;13.00;99.90;;;;;;5090380;28;20496;-59
2022/04/27 05:51:41;;;;;;;19.67;11.57;;;13.00;99.90;;;;;;5090858;28;20272;-55
2022/04/27 05:54:07;;;;;;;32.20;13.43;;;13.00;99.90;;;;;;5089625;28;20253;-55
2022/04/27 05:56:34;;;;;;;55.83;17.10;;;13.00;99.90;;;;;;5090434;28;20177;-54
2022/04/27 05:59:01;;;;;;;34.03;15.80;;;13.00;99.90;;;;;;5089328;28;20216;-55
2022/04/27 06:01:27;;;;;;;31.60;14.57;;;13.00;99.90;;;;;;5090638;28;20215;-56
2022/04/27 06:03:53;;;;;;;36.83;15.53;;;13.10;99.90;;;;;;5090547;28;20599;-55
2022/04/27 06:06:20;;;;;;;23.23;12.17;;;13.20;99.90;;;;;;5094384;28;20187;-55
2022/04/27 06:08:46;;;;;;;35.10;15.10;;;13.40;99.90;;;;;;5094405;28;20177;-56
2022/04/27 06:11:12;;;;;;;31.00;14.77;;;13.50;99.90;;;;;;5094373;28;20708;-57
2022/04/27 06:13:38;;;;;;;27.37;12.50;;;13.70;99.90;;;;;;5094641;28;20536;-59
2022/04/27 06:16:04;;;;;;;27.70;14.03;;;13.80;99.90;;;;;;5093128;28;20181;-53
2022/04/27 06:18:29;;;;;;;34.00;14.43;;;14.00;99.90;;;;;;5094063;28;20196;-55
2022/04/27 06:20:56;;;;;;;26.63;12.70;;;14.10;99.90;;;;;;5094181;28;20631;-57
2022/04/27 06:23:23;;;;;;;25.80;12.07;;;14.10;99.90;;;;;;5094343;28;20377;-59
2022/04/27 06:25:49;;;;;;;20.20;12.00;;;14.20;99.90;;;;;;5093701;28;20173;-56
2022/04/27 06:28:18;;;;;;;24.37;13.10;;;14.20;99.90;;;;;;5093931;28;20211;-59
2022/04/27 06:30:44;;;;;;;28.63;14.03;;;14.30;99.90;;;;;;5074628;28;20213;-54
2022/04/27 06:33:09;;;;;;;19.33;12.37;;;14.20;99.90;;;;;;5073034;28;20282;-58
2022/04/27 06:35:35;;;;;;;23.57;12.00;;;14.20;99.90;;;;;;5072113;28;20181;-55
2022/04/27 06:38:01;;;;;;;28.03;14.43;;;14.10;99.90;;;;;;5073816;28;20232;-54
2022/04/27 06:40:27;;;;;;;30.50;12.73;;;14.30;99.90;;;;;;5072522;28;20276;-56
2022/04/27 06:42:55;;;;;;;24.43;12.70;;;14.40;99.90;;;;;;5073870;28;20205;-58
2022/04/27 06:45:21;;;;;;;28.83;13.40;;;14.50;99.90;;;;;;5055487;28;20181;-57
2022/04/27 06:47:46;;;;;;;24.83;13.63;;;14.60;99.90;;;;;;5073032;28;20668;-55
2022/04/27 06:50:12;;;;;;;21.53;13.80;;;15.00;99.90;;;;;;5072902;28;20286;-63
2022/04/27 06:52:42;;;;;;;21.47;12.53;;;15.20;99.90;;;;;;5073649;28;20251;-55
2022/04/27 06:55:09;;;;;;;20.90;12.40;;;15.30;99.90;;;;;;5072170;28;20537;-57
2022/04/27 06:57:35;;;;;;;31.40;11.17;;;15.20;99.90;;;;;;5072865;28;20181;-56
2022/04/27 07:00:02;;;;;;;31.77;12.23;;;15.00;99.90;;;;;;5072920;28;20175;-54
2022/04/27 07:02:28;;;;;;;22.03;11.70;;;15.00;99.90;;;;;;5073244;28;20201;-59
2022/04/27 07:04:59;;;;;;;17.83;10.93;;;14.90;99.90;;;;;;5073028;28;20184;-58
2022/04/27 07:07:26;;;;;;;20.80;10.70;;;15.00;99.90;;;;;;5073159;28;20531;-56
2022/04/27 07:09:53;;;;;;;22.63;11.67;;;15.00;99.90;;;;;;5071426;28;20178;-56
2022/04/27 07:12:20;;;;;;;15.33;9.80;;;14.90;99.90;;;;;;5072716;28;20213;-58
2022/04/27 07:14:46;;;;;;;24.93;12.80;;;14.70;99.90;;;;;;5073266;28;20170;-56
2022/04/27 07:17:12;;;;;;;34.37;19.10;;;14.60;99.90;;;;;;5072122;28;20215;-55
2022/04/27 07:19:38;;;;;;;19.20;11.73;;;14.60;99.90;;;;;;5072554;28;20178;-56
2022/04/27 07:22:05;;;;;;;18.60;11.70;;;14.50;99.90;;;;;;5072669;28;20241;-56
2022/04/27 07:24:34;;;;;;;16.17;11.00;;;14.40;99.90;;;;;;5072796;28;20315;-56
2022/04/27 07:27:00;;;;;;;15.90;10.23;;;14.50;99.90;;;;;;5073148;28;20189;-57
2022/04/27 07:29:26;;;;;;;15.50;10.10;;;14.60;99.90;;;;;;5080872;28;20173;-56
2022/04/27 07:31:52;;;;;;;19.80;11.03;;;14.30;99.90;;;;;;5091647;28;20703;-54
2022/04/27 07:34:17;;;;;;;15.27;9.87;;;14.10;99.90;;;;;;5090901;28;20191;-55
2022/04/27 07:36:44;;;;;;;23.70;11.27;;;13.90;99.90;;;;;;5092692;28;20181;-55
2022/04/27 07:39:10;;;;;;;20.93;11.87;;;13.70;99.90;;;;;;5092532;28;20184;-52
2022/04/27 07:41:36;;;;;;;19.60;11.20;;;13.70;99.90;;;;;;5092591;28;20189;-55
2022/04/27 07:44:02;;;;;;;25.97;11.07;;;13.60;99.90;;;;;;5090681;28;20267;-54
2022/04/27 07:46:28;;;;;;;17.47;10.63;;;13.50;99.90;;;;;;5092615;28;20185;-55
2022/04/27 07:48:54;;;;;;;27.73;13.07;;;13.40;99.90;;;;;;5091261;28;20709;-56
2022/04/27 07:51:20;;;;;;;34.13;12.50;;;13.40;99.90;;;;;;5091586;28;20193;-55
2022/04/27 07:53:46;;;;;;;24.63;11.97;;;13.40;99.90;;;;;;5092479;28;20181;-53
2022/04/27 07:56:12;;;;;;;19.60;12.00;;;13.30;99.90;;;;;;5092050;28;20297;-57
2022/04/27 07:58:38;;;;;;;23.73;12.43;;;13.30;99.90;;;;;;5092083;28;20185;-57
2022/04/27 08:01:03;;;;;;;27.53;12.23;;;13.40;99.90;;;;;;5091972;28;20173;-55
2022/04/27 08:03:29;;;;;;;32.03;8.97;;;13.30;99.90;;;;;;5092277;28;20181;-56
2022/04/27 08:05:55;;;;;;;15.57;8.10;;;13.30;99.90;;;;;;5091773;28;20598;-55
2022/04/27 08:08:21;;;;;;;26.87;9.63;;;13.30;99.90;;;;;;5090756;28;20191;-57
2022/04/27 08:10:47;;;;;;;13.50;8.80;;;13.20;99.90;;;;;;5074026;28;20181;-56
2022/04/27 08:13:15;;;;;;;14.67;8.93;;;13.30;99.90;;;;;;5092291;28;20217;-55
2022/04/27 08:15:41;;;;;;;27.47;12.90;;;13.40;99.90;;;;;;5090618;28;20220;-55
2022/04/27 08:18:07;;;;;;;34.10;15.43;;;13.30;99.90;;;;;;5092155;28;20550;-54
2022/04/27 08:23:23;;;;;;;22.90;13.23;;;13.30;99.90;;;;;;5092248;28;20759;-56
2022/04/27 08:25:50;;;;;;;31.40;14.93;;;13.40;99.90;;;;;;5090569;28;20192;-54
2022/04/27 08:28:17;;;;;;;23.60;13.23;;;13.50;99.90;;;;;;5091233;28;20611;-52
2022/04/27 08:30:47;;;;;;;24.53;15.47;;;13.60;99.90;;;;;;5072797;28;20178;-53
2022/04/27 08:33:14;;;;;;;22.53;13.50;;;14.00;99.90;;;;;;5071808;28;20221;-56
2022/04/27 08:35:40;;;;;;;21.47;14.23;;;14.30;99.90;;;;;;5071377;28;20260;-54
2022/04/27 08:38:07;;;;;;;18.63;12.37;;;14.40;99.90;;;;;;5071471;28;20544;-57
2022/04/27 08:40:38;;;;;;;24.20;14.43;;;14.60;99.90;;;;;;5070772;28;20192;-58
2022/04/27 08:43:04;;;;;;;20.40;12.73;;;14.60;99.90;;;;;;5071529;28;20658;-57
2022/04/27 08:45:30;;;;;;;22.40;13.43;;;14.80;99.90;;;;;;5069387;28;20185;-56
2022/04/27 08:47:56;;;;;;;21.07;11.97;;;15.00;99.90;;;;;;5070958;28;20185;-56
2022/04/27 08:50:24;;;;;;;20.20;11.97;;;15.10;99.90;;;;;;5070738;28;20285;-56
2022/04/27 08:52:51;;;;;;;24.90;13.57;;;14.80;99.90;;;;;;5070630;28;20300;-58
2022/04/27 08:55:18;;;;;;;23.80;12.40;;;14.80;99.90;;;;;;5070599;28;20284;-55
2022/04/27 08:57:44;;;;;;;20.97;12.83;;;14.90;99.90;;;;;;5070585;28;20618;-57
2022/04/27 09:00:14;;;;;;;20.67;11.40;;;14.80;99.90;;;;;;5070814;28;20185;-57
2022/04/27 09:02:41;;;;;;;21.80;13.73;;;14.80;99.90;;;;;;5068927;28;20193;-53
2022/04/27 09:05:11;;;;;;;20.43;12.83;;;14.80;99.90;;;;;;5069181;28;20288;-56
2022/04/27 09:07:50;;;;;;;24.03;13.67;;;14.80;99.90;;;;;;5070836;28;20230;-57
2022/04/27 09:10:18;;;;;;;21.90;13.33;;;15.00;99.90;;;;;;5070822;28;20492;-56
2022/04/27 09:12:52;;;;;;;22.43;13.17;;;15.00;99.90;;;;;;5070681;28;20224;-57
2022/04/27 09:15:20;;;;;;;23.07;13.60;;;15.10;99.90;;;;;;5070852;28;20271;-57
2022/04/27 09:20:52;;;;;;;28.50;14.90;;;15.20;99.90;;;;;;5070627;28;20265;-54
2022/04/27 09:23:26;;;;;;;23.77;14.00;;;15.00;99.90;;;;;;5069321;28;20192;-56
2022/04/27 09:25:59;;;;;;;26.10;13.40;;;15.00;99.90;;;;;;5071186;28;20523;-57
2022/04/27 09:28:29;;;;;;;27.47;14.03;;;15.00;99.90;;;;;;5070770;28;20193;-56
2022/04/27 09:30:56;;;;;;;21.67;13.27;;;15.20;99.90;;;;;;5091019;28;20638;-58
2022/04/27 09:33:36;;;;;;;20.93;13.77;;;15.50;99.90;;;;;;5091167;28;20212;-61
2022/04/27 09:36:18;;;;;;;21.17;13.67;;;16.00;99.90;;;;;;5090769;28;20556;-58
2022/04/27 09:38:44;;;;;;;27.23;15.17;;;16.00;99.90;;;;;;5090481;28;20184;-60
2022/04/27 09:41:09;;;;;;;24.60;14.33;;;16.30;99.90;;;;;;5092859;28;20552;-58
2022/04/27 09:43:46;;;;;;;19.83;13.10;;;16.40;99.90;;;;;;5094312;28;20249;-60
2022/04/27 09:46:28;;;;;;;23.50;14.17;;;16.30;99.90;;;;;;5093911;28;20177;-58
2022/04/27 09:49:07;;;;;;;22.13;14.03;;;16.20;99.90;;;;;;5094740;28;20177;-59
2022/04/27 09:51:37;;;;;;;19.40;11.93;;;15.90;99.90;;;;;;5093831;28;20683;-58
2022/04/27 09:54:04;;;;;;;20.83;12.80;;;15.70;99.90;;;;;;5094286;28;20177;-56
2022/04/27 09:56:39;;;;;;;24.13;12.37;;;15.30;99.90;;;;;;5094435;28;20234;-57
2022/04/27 09:59:09;;;;;;;22.10;13.43;;;15.10;99.90;;;;;;5094713;28;20585;-56
2022/04/27 10:01:37;;;;;;;20.40;12.60;;;15.00;99.90;;;;;;5094247;28;20188;-58
2022/04/27 10:04:06;;;;;;;19.53;12.50;;;14.90;99.90;;;;;;5094741;28;20241;-57
2022/04/27 10:06:34;;;;;;;21.30;12.67;;;14.60;99.90;;;;;;5094270;28;20188;-58
2022/04/27 10:09:02;;;;;;;21.53;12.77;;;14.50;99.90;;;;;;5094587;28;20225;-57
2022/04/27 10:11:29;;;;;;;21.67;13.27;;;14.30;99.90;;;;;;5094105;28;20177;-57
2022/04/27 10:13:55;;;;;;;18.80;12.60;;;14.10;99.90;;;;;;5094533;28;20212;-58
2022/04/27 10:16:23;;;;;;;18.20;11.30;;;13.90;99.90;;;;;;5094057;28;20502;-57
2022/04/27 10:18:49;;;;;;;13.97;9.13;;;13.90;99.90;;;;;;5094752;28;20175;-58
2022/04/27 10:21:39;;;;;;;19.90;11.33;;;13.80;99.90;;;;;;5093894;28;20236;-59
2022/04/27 10:24:12;;;;;;;16.83;9.90;;;13.90;99.90;;;;;;5093899;28;20208;-60
2022/04/27 10:26:40;;;;;;;15.43;9.63;;;13.90;99.90;;;;;;5093485;28;20189;-56
2022/04/27 10:29:06;;;;;;;17.47;9.67;;;13.90;99.90;;;;;;5092325;28;20226;-57
2022/04/27 10:31:45;;;;;;;15.30;10.33;;;14.00;99.90;;;;;;5093731;28;20267;-59
2022/04/27 10:34:17;;;;;;;13.87;9.37;;;14.10;99.90;;;;;;5094072;28;20192;-59
2022/04/27 10:36:50;;;;;;;18.37;9.50;;;14.20;99.90;;;;;;5092079;28;20181;-60
2022/04/27 10:39:19;;;;;;;16.33;10.77;;;14.20;99.90;;;;;;5094265;28;20204;-59
2022/04/27 10:41:52;;;;;;;18.40;11.67;;;14.10;99.90;;;;;;5093498;28;20586;-59
2022/04/27 10:44:18;;;;;;;17.27;10.17;;;14.10;99.90;;;;;;5093886;28;20192;-58
2022/04/27 10:46:44;;;;;;;17.93;10.10;;;14.10;99.90;;;;;;5093449;28;20698;-57
2022/04/27 10:49:28;;;;;;;13.87;10.20;;;14.10;99.90;;;;;;5092545;28;20266;-59
2022/04/27 10:52:10;;;;;;;19.00;11.57;;;14.30;99.90;;;;;;5092582;28;20305;-57
2022/04/27 10:54:38;;;;;;;15.60;9.03;;;14.40;99.90;;;;;;5093487;28;20177;-60
2022/04/27 10:57:16;;;;;;;17.17;9.93;;;14.60;99.90;;;;;;5093432;28;20178;-58
2022/04/27 10:59:51;;;;;;;17.63;10.27;;;14.80;99.90;;;;;;5093143;28;20188;-60
2022/04/27 11:02:53;;;;;;;17.43;10.37;;;14.90;99.90;;;;;;5093754;28;20279;-59
2022/04/27 11:05:21;;;;;;;21.17;10.67;;;15.20;99.90;;;;;;5070888;28;20212;-57
2022/04/27 11:08:09;;;;;;;15.20;9.53;;;15.40;99.90;;;;;;5092681;28;20227;-58
2022/04/27 11:10:39;;;;;;;15.20;9.53;;;15.60;99.90;;;;;;5093039;28;20186;-59
2022/04/27 11:13:05;;;;;;;18.27;10.23;;;15.70;99.90;;;;;;5093206;28;20240;-58
2022/04/27 11:15:31;;;;;;;17.30;10.03;;;16.10;99.90;;;;;;5092965;28;20234;-58
2022/04/27 11:18:02;;;;;;;15.07;10.20;;;16.30;99.90;;;;;;5091531;28;20535;-57
2022/04/27 11:20:35;;;;;;;18.03;11.27;;;16.30;99.90;;;;;;5092791;28;20193;-61
2022/04/27 11:23:07;;;;;;;25.00;12.33;;;16.70;99.90;;;;;;5093122;28;20693;-59
2022/04/27 11:25:35;;;;;;;23.73;12.80;;;17.40;99.90;;;;;;5092866;28;20242;-60
2022/04/27 11:28:03;;;;;;;18.47;11.47;;;18.10;99.90;;;;;;5093108;28;20629;-60
2022/04/27 11:30:31;;;;;;;16.67;9.97;;;18.90;99.90;;;;;;5075572;28;20684;-59
2022/04/27 11:32:58;;;;;;;20.77;12.33;;;18.90;99.90;;;;;;5070962;28;20217;-55
2022/04/27 11:35:25;;;;;;;20.33;11.10;;;18.40;99.90;;;;;;5072450;28;20187;-58
2022/04/27 11:37:55;;;;;;;16.45;10.20;;;19.30;99.90;;;;;;5072612;28;20188;-61
2022/04/27 11:40:25;;;;;;;15.70;10.18;;;20.40;99.90;;;;;;5072071;28;20687;-60
2022/04/27 11:42:52;;;;;;;14.35;9.40;;;21.50;98.90;;;;;;5070843;28;20228;-61
2022/04/27 11:45:26;;;;;;;18.42;8.90;;;23.00;95.30;;;;;;5072897;28;20266;-61
2022/04/27 11:48:03;;;;;;;23.40;11.13;;;23.90;93.10;;;;;;5054763;28;20295;-60
2022/04/27 11:50:31;;;;;;;26.95;9.77;;;24.40;93.20;;;;;;5054651;28;20720;-59
2022/04/27 11:53:07;;;;;;;18.00;8.68;;;24.60;91.60;;;;;;5072465;28;20571;-59
2022/04/27 11:55:34;;;;;;;29.30;9.65;;;24.90;90.10;;;;;;5070466;28;20539;-58
2022/04/27 11:58:01;;;;;;;22.15;9.55;;;25.20;87.50;;;;;;5072007;28;20197;-61
2022/04/27 12:00:28;;;;;;;31.35;9.90;;;25.70;86.30;;;;;;5071863;28;20181;-61
2022/04/27 12:03:05;;;;;;;32.33;9.23;;;26.00;83.30;;;;;;5071868;28;20255;-63
2022/04/27 12:05:32;;;;;;;31.90;12.38;;;25.70;80.90;;;;;;5071844;28;20353;-59
2022/04/27 12:08:01;;;;;;;23.40;8.23;;;25.30;81.70;;;;;;5071967;28;20276;-59
2022/04/27 12:10:29;;;;;;;24.67;8.82;;;25.20;80.00;;;;;;5070392;28;20177;-60
2022/04/27 12:12:59;;;;;;;23.88;9.10;;;23.70;84.60;;;;;;5071618;28;20339;-63
2022/04/27 12:15:26;;;;;;;24.27;10.77;;;23.50;84.90;;;;;;5072257;28;20186;-62
2022/04/27 12:17:57;;;;;;;25.08;9.50;;;24.20;84.00;;;;;;5071925;28;20174;-59
2022/04/27 12:20:22;;;;;;;18.35;8.90;;;25.10;82.20;;;;;;5072005;28;20226;-61
2022/04/27 12:22:52;;;;;;;31.92;10.00;;;25.10;78.50;;;;;;5071642;28;20268;-59
2022/04/27 12:25:18;;;;;;;31.25;10.82;;;24.90;80.50;;;;;;5071677;28;20182;-59
2022/04/27 12:27:44;;;;;;;24.10;9.63;;;25.00;79.70;;;;;;5071476;28;20177;-58
2022/04/27 12:30:10;;;;;;;16.05;8.57;;;25.40;78.30;;;;;;5086325;28;20189;-61
2022/04/27 12:32:37;;;;;;;15.90;9.32;;;24.90;77.60;;;;;;5091604;28;20221;-59
2022/04/27 12:38:12;;;;;;;30.73;9.35;;;21.90;85.40;;;;;;5068545;28;20189;-62
2022/04/27 12:40:42;;;;;;;23.17;10.02;;;20.40;90.00;;;;;;5069269;28;20173;-59
2022/04/27 12:43:08;;;;;;;29.00;9.57;;;19.80;91.00;;;;;;5080410;28;20665;-59
2022/04/27 12:45:35;;;;;;;20.38;8.60;;;19.20;92.10;;;;;;5073482;28;20185;-59
2022/04/27 12:48:02;;;;;;;17.35;8.93;;;18.80;93.00;;;;;;5091648;28;20189;-60
2022/04/27 12:50:29;;;;;;;20.47;8.83;;;18.40;93.70;;;;;;5091828;28;20193;-61
2022/04/27 12:53:09;;;;;;;30.50;10.20;;;18.10;94.70;;;;;;5091685;28;20221;-59